sensor_id;sensor_type;location;lat;lon;timestamp;P1;durP1;ratioP1;P2;durP2;ratioP2
32838;SDS011;19182;41.820;12.808;2023-05-27T00:00:46;10.60;;;6.88;;
32838;SDS011;19182;41.820;12.808;2023-05-27T00:03:13;10.75;;;7.35;;
32838;SDS011;19182;41.820;12.808;2023-05-27T00:05:39;12.73;;;7.35;;
32838;SDS011;19182;41.820;12.808;2023-05-27T00:08:05;11.07;;;6.90;;
32838;SDS011;19182;41.820;12.808;2023-05-27T00:10:31;8.32;;;6.70;;
32838;SDS011;19182;41.820;12.808;2023-05-27T00:12:56;10.90;;;7.30;;
32838;SDS011;19182;41.820;12.808;2023-05-27T00:15:22;13.98;;;7.43;;
32838;SDS011;19182;41.820;12.808;2023-05-27T00:17:47;8.90;;;6.72;;
32838;SDS011;19182;41.820;12.808;2023-05-27T00:20:14;13.10;;;7.75;;
32838;SDS011;19182;41.820;12.808;2023-05-27T00:22:41;8.77;;;6.88;;
32838;SDS011;19182;41.820;12.808;2023-05-27T00:25:07;13.50;;;7.20;;
32838;SDS011;19182;41.820;12.808;2023-05-27T00:27:32;10.60;;;7.80;;
32838;SDS011;19182;41.820;12.808;2023-05-27T00:30:01;10.32;;;6.90;;
32838;SDS011;19182;41.820;12.808;2023-05-27T00:32:27;12.43;;;7.80;;
32838;SDS011;19182;41.820;12.808;2023-05-27T00:34:54;9.93;;;7.57;;
32838;SDS011;19182;41.820;12.808;2023-05-27T00:37:21;14.52;;;8.07;;
32838;SDS011;19182;41.820;12.808;2023-05-27T00:39:46;12.55;;;8.07;;
32838;SDS011;19182;41.820;12.808;2023-05-27T00:42:12;11.40;;;7.15;;
32838;SDS011;19182;41.820;12.808;2023-05-27T00:44:40;11.73;;;7.18;;
32838;SDS011;19182;41.820;12.808;2023-05-27T00:47:06;12.05;;;7.50;;
32838;SDS011;19182;41.820;12.808;2023-05-27T00:49:31;9.45;;;7.20;;
32838;SDS011;19182;41.820;12.808;2023-05-27T00:51:57;12.43;;;7.25;;
32838;SDS011;19182;41.820;12.808;2023-05-27T00:54:23;11.32;;;7.30;;
32838;SDS011;19182;41.820;12.808;2023-05-27T00:56:49;13.02;;;7.82;;
32838;SDS011;19182;41.820;12.808;2023-05-27T00:59:16;9.32;;;6.82;;
32838;SDS011;19182;41.820;12.808;2023-05-27T01:01:42;11.98;;;6.75;;
32838;SDS011;19182;41.820;12.808;2023-05-27T01:04:09;10.82;;;6.75;;
32838;SDS011;19182;41.820;12.808;2023-05-27T01:09:20;13.63;;;7.63;;
32838;SDS011;19182;41.820;12.808;2023-05-27T01:12:08;10.40;;;6.43;;
32838;SDS011;19182;41.820;12.808;2023-05-27T01:14:41;12.63;;;6.83;;
32838;SDS011;19182;41.820;12.808;2023-05-27T01:17:09;13.60;;;7.82;;
32838;SDS011;19182;41.820;12.808;2023-05-27T01:19:41;13.50;;;7.72;;
32838;SDS011;19182;41.820;12.808;2023-05-27T01:22:11;10.32;;;7.30;;
32838;SDS011;19182;41.820;12.808;2023-05-27T01:24:39;13.13;;;7.50;;
32838;SDS011;19182;41.820;12.808;2023-05-27T01:27:06;11.82;;;7.18;;
32838;SDS011;19182;41.820;12.808;2023-05-27T01:29:33;11.48;;;7.43;;
32838;SDS011;19182;41.820;12.808;2023-05-27T01:37:44;13.52;;;8.25;;
32838;SDS011;19182;41.820;12.808;2023-05-27T01:40:11;10.55;;;7.43;;
32838;SDS011;19182;41.820;12.808;2023-05-27T01:42:39;11.98;;;8.05;;
32838;SDS011;19182;41.820;12.808;2023-05-27T01:45:06;10.18;;;7.78;;
32838;SDS011;19182;41.820;12.808;2023-05-27T01:47:33;14.90;;;7.05;;
32838;SDS011;19182;41.820;12.808;2023-05-27T01:50:00;14.88;;;7.35;;
32838;SDS011;19182;41.820;12.808;2023-05-27T01:52:26;16.35;;;6.80;;
32838;SDS011;19182;41.820;12.808;2023-05-27T01:54:52;11.82;;;7.82;;
32838;SDS011;19182;41.820;12.808;2023-05-27T01:57:19;9.80;;;7.30;;
32838;SDS011;19182;41.820;12.808;2023-05-27T01:59:46;9.57;;;7.70;;
32838;SDS011;19182;41.820;12.808;2023-05-27T02:02:12;12.13;;;7.97;;
32838;SDS011;19182;41.820;12.808;2023-05-27T02:04:38;10.57;;;8.10;;
32838;SDS011;19182;41.820;12.808;2023-05-27T02:07:05;17.67;;;7.20;;
32838;SDS011;19182;41.820;12.808;2023-05-27T02:09:30;11.85;;;8.20;;
32838;SDS011;19182;41.820;12.808;2023-05-27T02:11:56;11.63;;;7.82;;
32838;SDS011;19182;41.820;12.808;2023-05-27T02:14:23;10.48;;;7.18;;
32838;SDS011;19182;41.820;12.808;2023-05-27T02:16:49;11.70;;;8.90;;
32838;SDS011;19182;41.820;12.808;2023-05-27T02:19:15;15.23;;;8.80;;
32838;SDS011;19182;41.820;12.808;2023-05-27T02:21:42;15.55;;;8.70;;
32838;SDS011;19182;41.820;12.808;2023-05-27T02:24:09;15.32;;;8.23;;
32838;SDS011;19182;41.820;12.808;2023-05-27T02:26:34;11.88;;;8.00;;
32838;SDS011;19182;41.820;12.808;2023-05-27T02:29:01;14.98;;;8.18;;
32838;SDS011;19182;41.820;12.808;2023-05-27T02:31:27;10.38;;;8.43;;
32838;SDS011;19182;41.820;12.808;2023-05-27T02:33:53;11.88;;;8.02;;
32838;SDS011;19182;41.820;12.808;2023-05-27T02:36:21;12.48;;;7.68;;
32838;SDS011;19182;41.820;12.808;2023-05-27T02:38:49;11.38;;;7.55;;
32838;SDS011;19182;41.820;12.808;2023-05-27T02:41:15;10.10;;;7.20;;
32838;SDS011;19182;41.820;12.808;2023-05-27T02:43:40;18.55;;;7.70;;
32838;SDS011;19182;41.820;12.808;2023-05-27T02:46:07;21.70;;;7.88;;
32838;SDS011;19182;41.820;12.808;2023-05-27T02:48:33;13.13;;;7.75;;
32838;SDS011;19182;41.820;12.808;2023-05-27T02:50:58;12.40;;;7.60;;
32838;SDS011;19182;41.820;12.808;2023-05-27T02:53:24;13.27;;;7.32;;
32838;SDS011;19182;41.820;12.808;2023-05-27T02:55:50;12.27;;;7.40;;
32838;SDS011;19182;41.820;12.808;2023-05-27T02:58:16;14.05;;;8.30;;
32838;SDS011;19182;41.820;12.808;2023-05-27T03:00:41;12.98;;;7.75;;
32838;SDS011;19182;41.820;12.808;2023-05-27T03:03:08;13.73;;;7.93;;
32838;SDS011;19182;41.820;12.808;2023-05-27T03:05:35;15.10;;;8.07;;
32838;SDS011;19182;41.820;12.808;2023-05-27T03:08:01;14.60;;;7.68;;
32838;SDS011;19182;41.820;12.808;2023-05-27T03:10:28;14.85;;;7.72;;
32838;SDS011;19182;41.820;12.808;2023-05-27T03:12:54;12.05;;;8.13;;
32838;SDS011;19182;41.820;12.808;2023-05-27T03:15:22;13.07;;;8.33;;
32838;SDS011;19182;41.820;12.808;2023-05-27T03:17:49;17.90;;;8.55;;
32838;SDS011;19182;41.820;12.808;2023-05-27T03:20:15;14.63;;;7.88;;
32838;SDS011;19182;41.820;12.808;2023-05-27T03:22:44;12.57;;;7.47;;
32838;SDS011;19182;41.820;12.808;2023-05-27T03:25:11;12.57;;;8.13;;
32838;SDS011;19182;41.820;12.808;2023-05-27T03:27:38;14.05;;;8.45;;
32838;SDS011;19182;41.820;12.808;2023-05-27T03:30:05;12.75;;;8.07;;
32838;SDS011;19182;41.820;12.808;2023-05-27T03:32:32;15.02;;;8.38;;
32838;SDS011;19182;41.820;12.808;2023-05-27T03:34:58;10.52;;;7.50;;
32838;SDS011;19182;41.820;12.808;2023-05-27T03:37:24;10.55;;;6.97;;
32838;SDS011;19182;41.820;12.808;2023-05-27T03:39:50;13.43;;;6.88;;
32838;SDS011;19182;41.820;12.808;2023-05-27T03:42:18;12.98;;;7.53;;
32838;SDS011;19182;41.820;12.808;2023-05-27T03:44:43;13.95;;;7.68;;
32838;SDS011;19182;41.820;12.808;2023-05-27T03:47:10;13.07;;;8.02;;
32838;SDS011;19182;41.820;12.808;2023-05-27T03:49:36;14.23;;;8.15;;
32838;SDS011;19182;41.820;12.808;2023-05-27T03:52:02;12.95;;;7.80;;
32838;SDS011;19182;41.820;12.808;2023-05-27T03:54:29;10.75;;;7.13;;
32838;SDS011;19182;41.820;12.808;2023-05-27T03:56:55;13.32;;;8.00;;
32838;SDS011;19182;41.820;12.808;2023-05-27T03:59:22;11.07;;;8.38;;
32838;SDS011;19182;41.820;12.808;2023-05-27T04:01:47;12.30;;;8.48;;
32838;SDS011;19182;41.820;12.808;2023-05-27T04:04:14;13.55;;;8.43;;
32838;SDS011;19182;41.820;12.808;2023-05-27T04:06:40;12.35;;;9.15;;
32838;SDS011;19182;41.820;12.808;2023-05-27T04:09:06;13.02;;;8.13;;
32838;SDS011;19182;41.820;12.808;2023-05-27T04:11:33;14.02;;;9.73;;
32838;SDS011;19182;41.820;12.808;2023-05-27T04:14:00;16.50;;;10.02;;
32838;SDS011;19182;41.820;12.808;2023-05-27T04:16:26;15.15;;;9.95;;
32838;SDS011;19182;41.820;12.808;2023-05-27T04:18:56;15.07;;;11.00;;
32838;SDS011;19182;41.820;12.808;2023-05-27T04:21:23;15.98;;;11.02;;
32838;SDS011;19182;41.820;12.808;2023-05-27T04:23:49;16.38;;;10.38;;
32838;SDS011;19182;41.820;12.808;2023-05-27T04:26:14;13.05;;;10.35;;
32838;SDS011;19182;41.820;12.808;2023-05-27T04:28:40;13.75;;;9.65;;
32838;SDS011;19182;41.820;12.808;2023-05-27T04:31:06;18.80;;;9.68;;
32838;SDS011;19182;41.820;12.808;2023-05-27T04:33:43;13.77;;;9.18;;
32838;SDS011;19182;41.820;12.808;2023-05-27T04:36:09;14.80;;;9.83;;
32838;SDS011;19182;41.820;12.808;2023-05-27T04:38:36;14.13;;;9.23;;
32838;SDS011;19182;41.820;12.808;2023-05-27T04:41:02;16.17;;;8.68;;
32838;SDS011;19182;41.820;12.808;2023-05-27T04:43:28;11.63;;;8.63;;
32838;SDS011;19182;41.820;12.808;2023-05-27T04:45:56;13.43;;;7.70;;
32838;SDS011;19182;41.820;12.808;2023-05-27T04:48:24;12.55;;;8.35;;
32838;SDS011;19182;41.820;12.808;2023-05-27T04:50:51;34.83;;;20.23;;
32838;SDS011;19182;41.820;12.808;2023-05-27T04:53:19;55.42;;;30.35;;
32838;SDS011;19182;41.820;12.808;2023-05-27T04:55:46;30.15;;;18.45;;
32838;SDS011;19182;41.820;12.808;2023-05-27T04:58:12;26.65;;;15.48;;
32838;SDS011;19182;41.820;12.808;2023-05-27T05:00:39;23.52;;;14.75;;
32838;SDS011;19182;41.820;12.808;2023-05-27T05:03:25;16.00;;;9.90;;
32838;SDS011;19182;41.820;12.808;2023-05-27T05:06:04;22.63;;;13.13;;
32838;SDS011;19182;41.820;12.808;2023-05-27T05:08:31;26.48;;;12.90;;
32838;SDS011;19182;41.820;12.808;2023-05-27T05:10:57;17.55;;;11.23;;
32838;SDS011;19182;41.820;12.808;2023-05-27T05:13:23;11.73;;;9.18;;
32838;SDS011;19182;41.820;12.808;2023-05-27T05:15:54;17.08;;;8.73;;
32838;SDS011;19182;41.820;12.808;2023-05-27T05:18:21;10.55;;;6.57;;
32838;SDS011;19182;41.820;12.808;2023-05-27T05:20:47;10.23;;;6.03;;
32838;SDS011;19182;41.820;12.808;2023-05-27T05:23:13;8.57;;;5.05;;
32838;SDS011;19182;41.820;12.808;2023-05-27T05:25:40;8.93;;;5.43;;
32838;SDS011;19182;41.820;12.808;2023-05-27T05:28:06;8.73;;;5.03;;
32838;SDS011;19182;41.820;12.808;2023-05-27T05:30:32;13.80;;;5.90;;
32838;SDS011;19182;41.820;12.808;2023-05-27T05:32:59;8.23;;;5.85;;
32838;SDS011;19182;41.820;12.808;2023-05-27T05:35:25;8.43;;;5.65;;
32838;SDS011;19182;41.820;12.808;2023-05-27T05:37:51;12.55;;;5.55;;
32838;SDS011;19182;41.820;12.808;2023-05-27T05:40:17;7.90;;;5.45;;
32838;SDS011;19182;41.820;12.808;2023-05-27T05:42:48;9.82;;;5.25;;
32838;SDS011;19182;41.820;12.808;2023-05-27T05:45:14;8.25;;;5.25;;
32838;SDS011;19182;41.820;12.808;2023-05-27T05:47:40;9.48;;;5.63;;
32838;SDS011;19182;41.820;12.808;2023-05-27T05:50:07;7.97;;;4.88;;
32838;SDS011;19182;41.820;12.808;2023-05-27T05:52:34;7.38;;;4.95;;
32838;SDS011;19182;41.820;12.808;2023-05-27T05:55:01;6.78;;;4.47;;
32838;SDS011;19182;41.820;12.808;2023-05-27T05:57:27;6.82;;;4.60;;
32838;SDS011;19182;41.820;12.808;2023-05-27T05:59:57;9.82;;;3.97;;
32838;SDS011;19182;41.820;12.808;2023-05-27T06:02:24;6.55;;;4.55;;
32838;SDS011;19182;41.820;12.808;2023-05-27T06:04:50;5.35;;;3.75;;
32838;SDS011;19182;41.820;12.808;2023-05-27T06:07:16;11.85;;;3.95;;
32838;SDS011;19182;41.820;12.808;2023-05-27T06:09:43;9.52;;;4.07;;
32838;SDS011;19182;41.820;12.808;2023-05-27T06:12:10;7.18;;;4.15;;
32838;SDS011;19182;41.820;12.808;2023-05-27T06:14:35;10.13;;;4.95;;
32838;SDS011;19182;41.820;12.808;2023-05-27T06:17:01;7.63;;;4.32;;
32838;SDS011;19182;41.820;12.808;2023-05-27T06:19:30;8.70;;;4.03;;
32838;SDS011;19182;41.820;12.808;2023-05-27T06:21:56;12.30;;;4.63;;
32838;SDS011;19182;41.820;12.808;2023-05-27T06:24:23;16.52;;;7.55;;
32838;SDS011;19182;41.820;12.808;2023-05-27T06:26:49;13.00;;;6.43;;
32838;SDS011;19182;41.820;12.808;2023-05-27T06:29:17;8.47;;;4.47;;
32838;SDS011;19182;41.820;12.808;2023-05-27T06:31:43;6.80;;;3.85;;
32838;SDS011;19182;41.820;12.808;2023-05-27T06:34:09;7.43;;;3.60;;
32838;SDS011;19182;41.820;12.808;2023-05-27T06:36:35;6.18;;;3.05;;
32838;SDS011;19182;41.820;12.808;2023-05-27T06:39:01;7.15;;;3.40;;
32838;SDS011;19182;41.820;12.808;2023-05-27T06:41:26;4.63;;;3.00;;
32838;SDS011;19182;41.820;12.808;2023-05-27T06:43:52;2.78;;;2.10;;
32838;SDS011;19182;41.820;12.808;2023-05-27T06:46:18;5.22;;;2.53;;
32838;SDS011;19182;41.820;12.808;2023-05-27T06:48:44;3.42;;;1.98;;
32838;SDS011;19182;41.820;12.808;2023-05-27T06:51:09;4.18;;;2.40;;
32838;SDS011;19182;41.820;12.808;2023-05-27T06:53:37;4.43;;;2.80;;
32838;SDS011;19182;41.820;12.808;2023-05-27T06:56:02;14.93;;;3.22;;
32838;SDS011;19182;41.820;12.808;2023-05-27T06:58:29;7.18;;;4.55;;
32838;SDS011;19182;41.820;12.808;2023-05-27T07:00:55;10.25;;;4.13;;
32838;SDS011;19182;41.820;12.808;2023-05-27T07:03:20;10.00;;;4.82;;
32838;SDS011;19182;41.820;12.808;2023-05-27T07:05:46;11.55;;;4.63;;
32838;SDS011;19182;41.820;12.808;2023-05-27T07:08:13;8.55;;;4.07;;
32838;SDS011;19182;41.820;12.808;2023-05-27T07:10:40;6.45;;;3.85;;
32838;SDS011;19182;41.820;12.808;2023-05-27T07:13:06;6.72;;;3.58;;
32838;SDS011;19182;41.820;12.808;2023-05-27T07:15:33;3.22;;;2.75;;
32838;SDS011;19182;41.820;12.808;2023-05-27T07:17:58;7.10;;;3.35;;
32838;SDS011;19182;41.820;12.808;2023-05-27T07:20:24;3.90;;;2.80;;
32838;SDS011;19182;41.820;12.808;2023-05-27T07:22:50;6.53;;;3.17;;
32838;SDS011;19182;41.820;12.808;2023-05-27T07:25:16;4.25;;;2.95;;
32838;SDS011;19182;41.820;12.808;2023-05-27T07:27:42;3.65;;;2.90;;
32838;SDS011;19182;41.820;12.808;2023-05-27T07:30:09;3.85;;;2.65;;
32838;SDS011;19182;41.820;12.808;2023-05-27T07:32:35;6.95;;;2.92;;
32838;SDS011;19182;41.820;12.808;2023-05-27T07:35:01;6.05;;;2.90;;
32838;SDS011;19182;41.820;12.808;2023-05-27T07:37:27;5.38;;;3.33;;
32838;SDS011;19182;41.820;12.808;2023-05-27T07:39:55;5.97;;;3.53;;
32838;SDS011;19182;41.820;12.808;2023-05-27T07:42:20;7.53;;;2.90;;
32838;SDS011;19182;41.820;12.808;2023-05-27T07:44:48;8.95;;;3.42;;
32838;SDS011;19182;41.820;12.808;2023-05-27T07:47:13;7.90;;;3.03;;
32838;SDS011;19182;41.820;12.808;2023-05-27T07:49:39;3.60;;;2.80;;
32838;SDS011;19182;41.820;12.808;2023-05-27T07:52:05;7.00;;;3.28;;
32838;SDS011;19182;41.820;12.808;2023-05-27T07:54:31;6.97;;;2.72;;
32838;SDS011;19182;41.820;12.808;2023-05-27T07:56:57;8.50;;;3.22;;
32838;SDS011;19182;41.820;12.808;2023-05-27T07:59:23;7.45;;;3.47;;
32838;SDS011;19182;41.820;12.808;2023-05-27T08:01:49;4.25;;;2.92;;
32838;SDS011;19182;41.820;12.808;2023-05-27T08:04:15;5.50;;;2.60;;
32838;SDS011;19182;41.820;12.808;2023-05-27T08:06:40;4.82;;;3.03;;
32838;SDS011;19182;41.820;12.808;2023-05-27T08:09:06;10.25;;;3.25;;
32838;SDS011;19182;41.820;12.808;2023-05-27T08:11:32;3.83;;;3.05;;
32838;SDS011;19182;41.820;12.808;2023-05-27T08:13:58;9.73;;;3.20;;
32838;SDS011;19182;41.820;12.808;2023-05-27T08:16:24;6.07;;;3.10;;
32838;SDS011;19182;41.820;12.808;2023-05-27T08:18:50;6.60;;;2.95;;
32838;SDS011;19182;41.820;12.808;2023-05-27T08:21:16;6.55;;;3.00;;
32838;SDS011;19182;41.820;12.808;2023-05-27T08:23:42;5.18;;;3.17;;
32838;SDS011;19182;41.820;12.808;2023-05-27T08:26:08;5.18;;;3.55;;
32838;SDS011;19182;41.820;12.808;2023-05-27T08:28:34;5.43;;;2.90;;
32838;SDS011;19182;41.820;12.808;2023-05-27T08:31:02;4.30;;;3.13;;
32838;SDS011;19182;41.820;12.808;2023-05-27T08:33:28;7.13;;;3.33;;
32838;SDS011;19182;41.820;12.808;2023-05-27T08:35:56;4.38;;;2.70;;
32838;SDS011;19182;41.820;12.808;2023-05-27T08:38:22;10.30;;;3.67;;
32838;SDS011;19182;41.820;12.808;2023-05-27T08:40:49;6.80;;;3.03;;
32838;SDS011;19182;41.820;12.808;2023-05-27T08:43:15;5.60;;;3.53;;
32838;SDS011;19182;41.820;12.808;2023-05-27T08:45:41;9.10;;;3.42;;
32838;SDS011;19182;41.820;12.808;2023-05-27T08:48:08;6.88;;;3.47;;
32838;SDS011;19182;41.820;12.808;2023-05-27T08:50:35;3.75;;;2.97;;
32838;SDS011;19182;41.820;12.808;2023-05-27T08:53:02;8.73;;;3.10;;
32838;SDS011;19182;41.820;12.808;2023-05-27T08:55:28;6.68;;;3.53;;
32838;SDS011;19182;41.820;12.808;2023-05-27T08:57:57;4.03;;;2.95;;
32838;SDS011;19182;41.820;12.808;2023-05-27T09:00:26;5.72;;;3.10;;
32838;SDS011;19182;41.820;12.808;2023-05-27T09:02:52;4.78;;;2.75;;
32838;SDS011;19182;41.820;12.808;2023-05-27T09:05:21;5.22;;;3.50;;
32838;SDS011;19182;41.820;12.808;2023-05-27T09:07:47;7.13;;;3.67;;
32838;SDS011;19182;41.820;12.808;2023-05-27T09:10:13;11.23;;;4.25;;
32838;SDS011;19182;41.820;12.808;2023-05-27T09:12:42;5.63;;;3.25;;
32838;SDS011;19182;41.820;12.808;2023-05-27T09:15:10;6.00;;;3.97;;
32838;SDS011;19182;41.820;12.808;2023-05-27T09:17:40;7.30;;;3.13;;
32838;SDS011;19182;41.820;12.808;2023-05-27T09:20:07;7.35;;;3.40;;
32838;SDS011;19182;41.820;12.808;2023-05-27T09:22:33;6.32;;;3.50;;
32838;SDS011;19182;41.820;12.808;2023-05-27T09:25:00;7.90;;;4.68;;
32838;SDS011;19182;41.820;12.808;2023-05-27T09:27:27;7.05;;;3.60;;
32838;SDS011;19182;41.820;12.808;2023-05-27T09:29:54;5.30;;;3.47;;
32838;SDS011;19182;41.820;12.808;2023-05-27T09:32:27;4.50;;;3.25;;
32838;SDS011;19182;41.820;12.808;2023-05-27T09:34:55;6.50;;;2.80;;
32838;SDS011;19182;41.820;12.808;2023-05-27T09:37:25;6.13;;;3.10;;
32838;SDS011;19182;41.820;12.808;2023-05-27T09:40:05;4.78;;;3.17;;
32838;SDS011;19182;41.820;12.808;2023-05-27T09:42:45;5.93;;;3.17;;
32838;SDS011;19182;41.820;12.808;2023-05-27T09:45:13;5.70;;;3.03;;
32838;SDS011;19182;41.820;12.808;2023-05-27T09:47:41;4.88;;;3.17;;
32838;SDS011;19182;41.820;12.808;2023-05-27T09:50:12;6.43;;;3.05;;
32838;SDS011;19182;41.820;12.808;2023-05-27T09:52:41;7.53;;;3.80;;
32838;SDS011;19182;41.820;12.808;2023-05-27T09:55:08;5.13;;;3.03;;
32838;SDS011;19182;41.820;12.808;2023-05-27T09:57:37;5.22;;;2.95;;
32838;SDS011;19182;41.820;12.808;2023-05-27T10:00:05;3.83;;;2.72;;
32838;SDS011;19182;41.820;12.808;2023-05-27T10:02:40;6.68;;;2.40;;
32838;SDS011;19182;41.820;12.808;2023-05-27T10:05:14;5.13;;;3.17;;
32838;SDS011;19182;41.820;12.808;2023-05-27T10:07:42;5.03;;;3.10;;
32838;SDS011;19182;41.820;12.808;2023-05-27T10:10:09;5.70;;;2.30;;
32838;SDS011;19182;41.820;12.808;2023-05-27T10:12:37;5.32;;;3.03;;
32838;SDS011;19182;41.820;12.808;2023-05-27T10:15:39;5.80;;;3.00;;
32838;SDS011;19182;41.820;12.808;2023-05-27T10:17:59;7.03;;;3.30;;
32838;SDS011;19182;41.820;12.808;2023-05-27T10:22:57;4.38;;;3.00;;
32838;SDS011;19182;41.820;12.808;2023-05-27T10:25:47;5.03;;;3.30;;
32838;SDS011;19182;41.820;12.808;2023-05-27T10:28:32;4.85;;;2.50;;
32838;SDS011;19182;41.820;12.808;2023-05-27T10:31:21;3.42;;;2.70;;
32838;SDS011;19182;41.820;12.808;2023-05-27T10:36:25;4.75;;;2.58;;
32838;SDS011;19182;41.820;12.808;2023-05-27T10:38:54;5.70;;;2.92;;
32838;SDS011;19182;41.820;12.808;2023-05-27T10:41:21;6.22;;;2.80;;
32838;SDS011;19182;41.820;12.808;2023-05-27T10:43:54;5.10;;;3.25;;
32838;SDS011;19182;41.820;12.808;2023-05-27T10:46:21;5.78;;;2.80;;
32838;SDS011;19182;41.820;12.808;2023-05-27T10:51:50;4.80;;;3.22;;
32838;SDS011;19182;41.820;12.808;2023-05-27T10:54:18;4.47;;;3.17;;
32838;SDS011;19182;41.820;12.808;2023-05-27T10:56:47;5.75;;;3.17;;
32838;SDS011;19182;41.820;12.808;2023-05-27T10:59:16;5.93;;;3.42;;
32838;SDS011;19182;41.820;12.808;2023-05-27T11:01:48;5.72;;;4.30;;
32838;SDS011;19182;41.820;12.808;2023-05-27T11:04:17;5.82;;;3.90;;
32838;SDS011;19182;41.820;12.808;2023-05-27T11:06:55;5.35;;;2.53;;
32838;SDS011;19182;41.820;12.808;2023-05-27T11:09:23;3.78;;;2.83;;
32838;SDS011;19182;41.820;12.808;2023-05-27T11:11:49;6.00;;;2.78;;
32838;SDS011;19182;41.820;12.808;2023-05-27T11:14:16;5.32;;;3.38;;
32838;SDS011;19182;41.820;12.808;2023-05-27T11:16:49;3.58;;;2.80;;
32838;SDS011;19182;41.820;12.808;2023-05-27T11:19:21;5.90;;;2.63;;
32838;SDS011;19182;41.820;12.808;2023-05-27T11:21:47;3.50;;;2.47;;
32838;SDS011;19182;41.820;12.808;2023-05-27T11:24:16;5.72;;;3.10;;
32838;SDS011;19182;41.820;12.808;2023-05-27T11:26:44;5.57;;;3.10;;
32838;SDS011;19182;41.820;12.808;2023-05-27T11:29:13;3.58;;;2.50;;
32838;SDS011;19182;41.820;12.808;2023-05-27T11:31:40;3.30;;;2.75;;
32838;SDS011;19182;41.820;12.808;2023-05-27T11:34:13;6.85;;;4.53;;
32838;SDS011;19182;41.820;12.808;2023-05-27T11:36:39;7.15;;;4.55;;
32838;SDS011;19182;41.820;12.808;2023-05-27T11:39:10;3.10;;;2.53;;
32838;SDS011;19182;41.820;12.808;2023-05-27T11:41:52;6.05;;;2.38;;
32838;SDS011;19182;41.820;12.808;2023-05-27T11:44:21;5.07;;;2.90;;
32838;SDS011;19182;41.820;12.808;2023-05-27T11:46:49;5.40;;;2.60;;
32838;SDS011;19182;41.820;12.808;2023-05-27T11:49:16;7.30;;;3.03;;
32838;SDS011;19182;41.820;12.808;2023-05-27T11:51:47;8.60;;;4.68;;
32838;SDS011;19182;41.820;12.808;2023-05-27T11:54:17;3.67;;;2.60;;
32838;SDS011;19182;41.820;12.808;2023-05-27T11:56:45;8.55;;;4.38;;
32838;SDS011;19182;41.820;12.808;2023-05-27T11:59:13;6.55;;;3.55;;
32838;SDS011;19182;41.820;12.808;2023-05-27T12:01:41;3.97;;;2.60;;
32838;SDS011;19182;41.820;12.808;2023-05-27T12:04:08;5.75;;;2.40;;
32838;SDS011;19182;41.820;12.808;2023-05-27T12:06:34;3.20;;;2.75;;
32838;SDS011;19182;41.820;12.808;2023-05-27T12:09:04;7.05;;;4.80;;
32838;SDS011;19182;41.820;12.808;2023-05-27T12:11:32;8.45;;;4.35;;
32838;SDS011;19182;41.820;12.808;2023-05-27T12:13:58;4.78;;;2.92;;
32838;SDS011;19182;41.820;12.808;2023-05-27T12:16:25;4.78;;;2.70;;
32838;SDS011;19182;41.820;12.808;2023-05-27T12:18:52;5.78;;;3.65;;
32838;SDS011;19182;41.820;12.808;2023-05-27T12:21:18;6.35;;;2.97;;
32838;SDS011;19182;41.820;12.808;2023-05-27T12:23:45;3.10;;;2.45;;
32838;SDS011;19182;41.820;12.808;2023-05-27T12:26:12;3.90;;;2.38;;
32838;SDS011;19182;41.820;12.808;2023-05-27T12:28:39;4.25;;;3.00;;
32838;SDS011;19182;41.820;12.808;2023-05-27T12:31:05;8.23;;;3.10;;
32838;SDS011;19182;41.820;12.808;2023-05-27T12:33:32;4.75;;;2.75;;
32838;SDS011;19182;41.820;12.808;2023-05-27T12:35:58;7.78;;;3.25;;
32838;SDS011;19182;41.820;12.808;2023-05-27T12:38:25;3.40;;;2.25;;
32838;SDS011;19182;41.820;12.808;2023-05-27T12:40:51;8.23;;;4.60;;
32838;SDS011;19182;41.820;12.808;2023-05-27T12:43:18;4.47;;;3.40;;
32838;SDS011;19182;41.820;12.808;2023-05-27T12:45:45;7.32;;;4.45;;
32838;SDS011;19182;41.820;12.808;2023-05-27T12:48:14;10.23;;;5.38;;
32838;SDS011;19182;41.820;12.808;2023-05-27T12:50:42;7.82;;;4.93;;
32838;SDS011;19182;41.820;12.808;2023-05-27T12:53:08;20.05;;;11.93;;
32838;SDS011;19182;41.820;12.808;2023-05-27T12:55:35;16.58;;;10.68;;
32838;SDS011;19182;41.820;12.808;2023-05-27T12:58:01;10.50;;;7.43;;
32838;SDS011;19182;41.820;12.808;2023-05-27T13:00:27;13.27;;;8.90;;
32838;SDS011;19182;41.820;12.808;2023-05-27T13:02:54;20.13;;;13.80;;
32838;SDS011;19182;41.820;12.808;2023-05-27T13:05:19;14.80;;;12.00;;
32838;SDS011;19182;41.820;12.808;2023-05-27T13:07:52;7.68;;;4.28;;
32838;SDS011;19182;41.820;12.808;2023-05-27T13:10:20;7.43;;;3.92;;
32838;SDS011;19182;41.820;12.808;2023-05-27T13:12:47;10.25;;;4.65;;
32838;SDS011;19182;41.820;12.808;2023-05-27T13:15:13;7.57;;;4.10;;
32838;SDS011;19182;41.820;12.808;2023-05-27T13:17:39;10.75;;;5.75;;
32838;SDS011;19182;41.820;12.808;2023-05-27T13:20:07;5.05;;;2.80;;
32838;SDS011;19182;41.820;12.808;2023-05-27T13:22:34;4.38;;;2.88;;
32838;SDS011;19182;41.820;12.808;2023-05-27T13:25:00;5.47;;;3.40;;
32838;SDS011;19182;41.820;12.808;2023-05-27T13:27:27;4.03;;;3.03;;
32838;SDS011;19182;41.820;12.808;2023-05-27T13:29:56;4.38;;;2.78;;
32838;SDS011;19182;41.820;12.808;2023-05-27T13:32:22;6.50;;;3.72;;
32838;SDS011;19182;41.820;12.808;2023-05-27T13:34:47;11.32;;;5.55;;
32838;SDS011;19182;41.820;12.808;2023-05-27T13:37:13;4.78;;;3.03;;
32838;SDS011;19182;41.820;12.808;2023-05-27T13:39:39;18.48;;;9.60;;
32838;SDS011;19182;41.820;12.808;2023-05-27T13:42:08;24.02;;;9.50;;
32838;SDS011;19182;41.820;12.808;2023-05-27T13:44:37;4.60;;;2.80;;
32838;SDS011;19182;41.820;12.808;2023-05-27T13:47:04;6.63;;;3.97;;
32838;SDS011;19182;41.820;12.808;2023-05-27T13:49:31;10.45;;;5.30;;
32838;SDS011;19182;41.820;12.808;2023-05-27T13:51:58;5.50;;;3.25;;
32838;SDS011;19182;41.820;12.808;2023-05-27T13:54:24;13.15;;;5.55;;
32838;SDS011;19182;41.820;12.808;2023-05-27T13:56:50;3.28;;;2.33;;
32838;SDS011;19182;41.820;12.808;2023-05-27T13:59:16;3.47;;;2.80;;
32838;SDS011;19182;41.820;12.808;2023-05-27T14:01:42;6.13;;;3.80;;
32838;SDS011;19182;41.820;12.808;2023-05-27T14:04:10;11.40;;;6.20;;
32838;SDS011;19182;41.820;12.808;2023-05-27T14:06:36;7.03;;;4.90;;
32838;SDS011;19182;41.820;12.808;2023-05-27T14:09:03;22.42;;;10.85;;
32838;SDS011;19182;41.820;12.808;2023-05-27T14:11:30;21.00;;;10.00;;
32838;SDS011;19182;41.820;12.808;2023-05-27T14:13:55;42.70;;;18.33;;
32838;SDS011;19182;41.820;12.808;2023-05-27T14:16:21;16.17;;;7.38;;
32838;SDS011;19182;41.820;12.808;2023-05-27T14:18:48;8.55;;;4.80;;
32838;SDS011;19182;41.820;12.808;2023-05-27T14:21:14;7.07;;;4.63;;
32838;SDS011;19182;41.820;12.808;2023-05-27T14:23:41;9.38;;;4.65;;
32838;SDS011;19182;41.820;12.808;2023-05-27T14:26:07;6.05;;;3.78;;
32838;SDS011;19182;41.820;12.808;2023-05-27T14:28:33;4.80;;;3.05;;
32838;SDS011;19182;41.820;12.808;2023-05-27T14:30:59;8.45;;;4.35;;
32838;SDS011;19182;41.820;12.808;2023-05-27T14:33:28;4.68;;;3.95;;
32838;SDS011;19182;41.820;12.808;2023-05-27T14:35:54;7.88;;;3.83;;
32838;SDS011;19182;41.820;12.808;2023-05-27T14:38:20;6.88;;;4.00;;
32838;SDS011;19182;41.820;12.808;2023-05-27T14:40:46;6.78;;;3.92;;
32838;SDS011;19182;41.820;12.808;2023-05-27T14:43:14;5.20;;;3.80;;
32838;SDS011;19182;41.820;12.808;2023-05-27T14:45:40;9.18;;;4.55;;